createdAt,value
2018-01-19T00:01:55.336Z,3.70
2018-01-19T00:04:22.960Z,3.60
2018-01-19T00:06:51.262Z,3.30
2018-01-19T00:09:23.160Z,3.30
2018-01-19T00:11:50.686Z,3.30
2018-01-19T00:14:18.236Z,3.20
2018-01-19T00:16:46.553Z,3.10
2018-01-19T00:19:14.145Z,3.00
2018-01-19T00:21:41.721Z,2.90
2018-01-19T00:24:09.267Z,2.80
2018-01-19T00:26:36.839Z,2.80
2018-01-19T00:29:11.687Z,2.80
2018-01-19T00:31:40.017Z,2.70
2018-01-19T00:34:07.569Z,2.70
2018-01-19T00:36:35.112Z,2.80
2018-01-19T00:39:02.721Z,2.80
2018-01-19T00:41:30.245Z,2.80
2018-01-19T00:43:58.388Z,2.80
2018-01-19T00:46:26.776Z,2.80
2018-01-19T00:48:56.186Z,2.80
2018-01-19T00:51:23.742Z,2.80
2018-01-19T00:53:51.383Z,2.90
2018-01-19T00:56:18.978Z,2.90
2018-01-19T00:58:56.398Z,2.90
2018-01-19T01:01:23.983Z,3.00
2018-01-19T01:03:51.548Z,3.00
2018-01-19T01:06:19.147Z,3.10
2018-01-19T01:08:51.235Z,3.20
2018-01-19T01:11:18.859Z,3.20
2018-01-19T01:13:46.439Z,3.20
2018-01-19T01:16:14.755Z,3.30
2018-01-19T01:18:53.672Z,3.30
2018-01-19T01:21:21.713Z,3.30
2018-01-19T01:23:50.132Z,3.30
2018-01-19T01:26:17.698Z,3.30
2018-01-19T01:28:46.528Z,3.40
2018-01-19T01:31:14.102Z,3.30
2018-01-19T01:33:41.670Z,3.30
2018-01-19T01:36:10.838Z,3.30
2018-01-19T01:38:38.372Z,3.30
2018-01-19T01:41:05.968Z,3.30
2018-01-19T01:43:33.567Z,3.30
2018-01-19T01:46:01.787Z,3.30
2018-01-19T01:48:29.929Z,3.30
2018-01-19T01:50:57.505Z,3.30
2018-01-19T01:53:25.104Z,3.30
2018-01-19T01:55:53.439Z,3.40
2018-01-19T01:58:27.045Z,3.30
2018-01-19T02:00:54.719Z,3.40
2018-01-19T02:03:22.462Z,3.30
2018-01-19T02:05:50.638Z,3.40
2018-01-19T02:08:19.144Z,3.40
2018-01-19T02:10:46.718Z,3.40
2018-01-19T02:13:14.764Z,3.40
2018-01-19T02:15:42.301Z,3.40
2018-01-19T02:18:11.844Z,3.40
2018-01-19T02:20:39.442Z,3.50
2018-01-19T02:23:08.446Z,3.50
2018-01-19T02:25:35.993Z,3.50
2018-01-19T02:28:11.624Z,3.50
2018-01-19T02:30:39.179Z,3.50
2018-01-19T02:33:06.727Z,3.60
2018-01-19T02:35:34.327Z,3.60
2018-01-19T02:38:05.449Z,3.60
2018-01-19T02:40:33.014Z,3.60
2018-01-19T02:43:00.596Z,3.60
2018-01-19T02:45:28.148Z,3.70
2018-01-19T02:47:56.726Z,3.70
2018-01-19T02:50:24.309Z,3.70
2018-01-19T02:52:51.848Z,3.70
2018-01-19T02:55:19.430Z,3.70
2018-01-19T02:57:46.974Z,3.70
2018-01-19T03:00:14.568Z,3.70
2018-01-19T03:02:42.148Z,3.70
2018-01-19T03:05:09.701Z,3.70
2018-01-19T03:07:38.241Z,3.70
2018-01-19T03:10:05.813Z,3.80
2018-01-19T03:12:33.353Z,3.80
2018-01-19T03:15:00.993Z,3.80
2018-01-19T03:17:29.884Z,3.80
2018-01-19T03:19:58.409Z,3.70
2018-01-19T03:22:26.069Z,3.70
2018-01-19T03:24:54.415Z,3.70
2018-01-19T03:27:23.802Z,3.70
2018-01-19T03:29:51.390Z,3.70
2018-01-19T03:32:19.700Z,3.70
2018-01-19T03:34:47.274Z,3.70
2018-01-19T03:37:14.854Z,3.70
2018-01-19T03:39:42.400Z,3.70
2018-01-19T03:42:09.972Z,3.80
2018-01-19T03:44:37.508Z,3.80
2018-01-19T03:47:05.039Z,3.90
2018-01-19T03:49:33.566Z,3.90
2018-01-19T03:52:01.139Z,3.90
2018-01-19T03:54:28.687Z,3.90
2018-01-19T03:56:56.242Z,3.90
2018-01-19T03:59:24.865Z,3.90
2018-01-19T04:01:52.427Z,3.90
2018-01-19T04:04:19.963Z,3.80
2018-01-19T04:06:47.530Z,3.80
2018-01-19T04:09:16.287Z,3.70
2018-01-19T04:11:44.469Z,3.70
2018-01-19T04:14:12.058Z,3.60
2018-01-19T04:16:39.588Z,3.50
2018-01-19T04:19:14.008Z,3.50
2018-01-19T04:21:41.604Z,3.50
2018-01-19T04:24:09.133Z,3.40
2018-01-19T04:26:36.726Z,3.50
2018-01-19T04:29:07.856Z,3.50
2018-01-19T04:31:35.432Z,3.40
2018-01-19T04:34:03.015Z,3.40
2018-01-19T04:36:30.561Z,3.30
2018-01-19T04:38:59.103Z,3.30
2018-01-19T04:41:26.679Z,3.40
2018-01-19T04:43:54.235Z,3.30
2018-01-19T04:46:21.763Z,3.30
2018-01-19T04:49:00.281Z,3.40
2018-01-19T04:51:28.579Z,3.40
2018-01-19T04:53:56.129Z,3.30
2018-01-19T04:56:24.464Z,3.40
2018-01-19T04:58:52.017Z,3.40
2018-01-19T05:01:19.555Z,3.40
2018-01-19T05:03:47.120Z,3.30
2018-01-19T05:06:16.030Z,3.20
2018-01-19T05:08:45.637Z,3.20
2018-01-19T05:11:13.210Z,3.20
2018-01-19T05:13:40.764Z,3.10
2018-01-19T05:16:08.316Z,3.20
2018-01-19T05:18:36.466Z,3.20
2018-01-19T05:21:04.031Z,3.10
2018-01-19T05:23:31.575Z,3.10
2018-01-19T05:25:59.945Z,3.10
2018-01-19T05:28:30.210Z,3.10
2018-01-19T05:30:57.761Z,3.10
2018-01-19T05:33:25.819Z,3.20
2018-01-19T05:35:53.389Z,3.20
2018-01-19T05:38:25.841Z,3.20
2018-01-19T05:40:54.611Z,3.20
2018-01-19T05:43:22.127Z,3.20
2018-01-19T05:45:50.545Z,3.30
2018-01-19T05:48:18.154Z,3.30
2018-01-19T05:50:46.466Z,3.40
2018-01-19T05:53:14.000Z,3.40
2018-01-19T05:55:41.598Z,3.40
2018-01-19T05:58:12.397Z,3.50
2018-01-19T06:00:41.586Z,3.50
2018-01-19T06:03:09.144Z,3.50
2018-01-19T06:05:37.467Z,3.50
2018-01-19T06:08:05.074Z,3.50
2018-01-19T06:10:32.667Z,3.50
2018-01-19T06:13:00.283Z,3.50
2018-01-19T06:15:27.837Z,3.50
2018-01-19T06:17:55.425Z,3.60
2018-01-19T06:20:22.987Z,3.50
2018-01-19T06:22:50.551Z,3.50
2018-01-19T06:25:18.152Z,3.60
2018-01-19T06:27:46.650Z,3.50
2018-01-19T06:30:14.438Z,3.60
2018-01-19T06:32:42.024Z,3.60
2018-01-19T06:35:09.568Z,3.60
2018-01-19T06:37:40.276Z,3.60
2018-01-19T06:40:08.300Z,3.60
2018-01-19T06:42:35.872Z,3.60
2018-01-19T06:45:04.984Z,3.50
2018-01-19T06:47:37.559Z,3.50
2018-01-19T06:50:05.885Z,3.50
2018-01-19T06:52:33.441Z,3.50
2018-01-19T06:55:01.026Z,3.50
2018-01-19T06:57:28.658Z,3.60
2018-01-19T06:59:56.204Z,3.60
2018-01-19T07:02:23.779Z,3.70
2018-01-19T07:04:51.335Z,3.70
2018-01-19T07:07:19.802Z,3.70
2018-01-19T07:09:47.399Z,3.70
2018-01-19T07:12:14.986Z,3.70
2018-01-19T07:14:42.547Z,3.70
2018-01-19T07:17:10.126Z,3.60
2018-01-19T07:19:39.504Z,3.50
2018-01-19T07:22:07.062Z,3.50
2018-01-19T07:24:34.619Z,3.50
2018-01-19T07:27:02.204Z,3.50
2018-01-19T07:29:30.554Z,3.40
2018-01-19T07:31:58.132Z,3.40
2018-01-19T07:34:25.752Z,3.40
2018-01-19T07:36:54.241Z,3.40
2018-01-19T07:39:22.749Z,3.40
2018-01-19T07:41:50.391Z,3.40
2018-01-19T07:44:17.935Z,3.30
2018-01-19T07:46:46.479Z,3.30
2018-01-19T07:49:14.066Z,3.30
2018-01-19T07:51:41.664Z,3.20
2018-01-19T07:54:09.208Z,3.30
2018-01-19T07:56:36.788Z,3.30
2018-01-19T07:59:04.378Z,3.30
2018-01-19T08:01:32.542Z,3.30
2018-01-19T08:04:00.140Z,3.40
2018-01-19T08:06:28.936Z,3.40
2018-01-19T08:08:58.267Z,3.50
2018-01-19T08:11:25.830Z,3.50
2018-01-19T08:13:53.388Z,3.50
2018-01-19T08:16:20.926Z,3.60
2018-01-19T08:18:49.259Z,3.50
2018-01-19T08:21:16.845Z,3.60
2018-01-19T08:23:44.410Z,3.60
2018-01-19T08:26:12.013Z,3.70
2018-01-19T08:28:39.640Z,3.80
2018-01-19T08:31:07.165Z,3.90
2018-01-19T08:33:34.717Z,3.90
2018-01-19T08:36:02.280Z,4.00
2018-01-19T08:38:30.739Z,4.00
2018-01-19T08:40:59.050Z,3.90
2018-01-19T08:43:27.564Z,3.90
2018-01-19T08:45:55.121Z,3.80
2018-01-19T08:48:23.684Z,3.90
2018-01-19T08:50:51.279Z,3.80
2018-01-19T08:53:18.854Z,3.80
2018-01-19T08:55:47.162Z,3.90
2018-01-19T08:58:16.684Z,3.90
2018-01-19T09:00:44.247Z,4.00
2018-01-19T09:03:11.814Z,4.10
2018-01-19T09:05:39.381Z,4.10
2018-01-19T09:08:09.902Z,4.20
2018-01-19T09:10:37.479Z,4.20
2018-01-19T09:13:06.165Z,4.30
2018-01-19T09:15:33.720Z,4.30
2018-01-19T09:18:08.332Z,4.30
2018-01-19T09:20:35.899Z,4.40
2018-01-19T09:23:03.446Z,4.40
2018-01-19T09:25:31.037Z,4.50
2018-01-19T09:27:59.334Z,4.50
2018-01-19T09:30:26.885Z,4.50
2018-01-19T09:32:54.460Z,4.50
2018-01-19T09:35:22.012Z,4.50
2018-01-19T09:37:49.949Z,4.50
2018-01-19T09:40:17.531Z,4.50
2018-01-19T09:42:45.089Z,4.50
2018-01-19T09:45:12.658Z,4.50
2018-01-19T09:47:55.411Z,4.50
2018-01-19T09:50:22.957Z,4.60
2018-01-19T09:52:51.207Z,4.60
2018-01-19T09:55:18.843Z,4.70
2018-01-19T09:57:48.585Z,4.60
2018-01-19T10:00:16.095Z,4.70
2018-01-19T10:02:44.437Z,4.80
2018-01-19T10:05:13.543Z,4.80
2018-01-19T10:07:41.082Z,4.90
2018-01-19T10:10:09.487Z,5.00
2018-01-19T10:12:37.024Z,5.10
2018-01-19T10:15:04.578Z,5.10
2018-01-19T10:17:33.076Z,5.10
2018-01-19T10:20:00.634Z,5.10
2018-01-19T10:22:28.176Z,5.10
2018-01-19T10:24:55.759Z,5.10
2018-01-19T10:27:23.342Z,5.00
2018-01-19T10:29:50.875Z,5.10
2018-01-19T10:32:18.475Z,5.10
2018-01-19T10:34:46.044Z,5.20
2018-01-19T10:37:14.469Z,5.20
2018-01-19T10:39:50.473Z,5.20
2018-01-19T10:42:18.030Z,5.20
2018-01-19T10:44:45.593Z,5.20
2018-01-19T10:47:13.987Z,5.40
2018-01-19T10:49:43.709Z,5.40
2018-01-19T10:52:12.044Z,5.40
2018-01-19T10:54:40.330Z,5.40
2018-01-19T10:57:07.882Z,5.50
2018-01-19T10:59:36.488Z,5.60
2018-01-19T11:02:04.026Z,5.60
2018-01-19T11:04:31.616Z,5.50
2018-01-19T11:06:59.192Z,5.60
2018-01-19T11:09:30.506Z,5.80
2018-01-19T11:11:58.087Z,5.90
2018-01-19T11:14:27.596Z,6.00
2018-01-19T11:16:55.134Z,6.00
2018-01-19T11:19:22.717Z,5.90
2018-01-19T11:21:50.279Z,5.80
2018-01-19T11:24:17.835Z,5.70
2018-01-19T11:26:45.376Z,5.70
2018-01-19T11:29:16.293Z,5.80
2018-01-19T11:31:43.846Z,5.90
2018-01-19T11:34:12.224Z,6.10
2018-01-19T11:36:40.576Z,6.10
2018-01-19T11:39:11.880Z,6.10
2018-01-19T11:41:39.468Z,6.10
2018-01-19T11:44:07.028Z,6.20
2018-01-19T11:46:34.582Z,6.30
2018-01-19T11:49:04.160Z,6.30
2018-01-19T11:51:31.707Z,6.30
2018-01-19T11:54:00.122Z,6.20
2018-01-19T11:56:27.780Z,6.20
2018-01-19T11:58:56.407Z,6.20
2018-01-19T12:01:23.965Z,6.20
2018-01-19T12:03:51.551Z,6.20
2018-01-19T12:06:19.113Z,6.30
2018-01-19T12:08:57.492Z,6.50
2018-01-19T12:11:25.080Z,6.40
2018-01-19T12:13:52.624Z,6.40
2018-01-19T12:16:20.191Z,6.60
2018-01-19T12:18:48.685Z,6.60
2018-01-19T12:21:16.233Z,6.60
2018-01-19T12:23:43.790Z,6.60
2018-01-19T12:26:11.347Z,6.60
2018-01-19T12:28:38.940Z,6.50
2018-01-19T12:31:06.518Z,6.40
2018-01-19T12:33:34.920Z,6.50
2018-01-19T12:36:02.522Z,6.50
2018-01-19T12:38:31.053Z,6.70
2018-01-19T12:40:59.403Z,6.90
2018-01-19T12:43:28.177Z,6.90
2018-01-19T12:45:55.744Z,6.70
2018-01-19T12:48:23.353Z,6.60
2018-01-19T12:50:52.387Z,6.70
2018-01-19T12:53:20.057Z,6.60
2018-01-19T12:55:47.693Z,6.90
2018-01-19T12:58:15.267Z,7.10
2018-01-19T13:00:42.873Z,7.20
2018-01-19T13:03:10.474Z,7.20
2018-01-19T13:05:38.026Z,7.20
2018-01-19T13:08:05.618Z,7.10
2018-01-19T13:10:33.174Z,7.10
2018-01-19T13:13:03.198Z,7.10
2018-01-19T13:15:30.746Z,7.00
2018-01-19T13:17:58.320Z,6.80
2018-01-19T13:20:25.909Z,6.70
2018-01-19T13:22:53.442Z,6.70
2018-01-19T13:25:21.026Z,6.50
2018-01-19T13:27:50.048Z,6.40
2018-01-19T13:30:17.743Z,6.40
2018-01-19T13:32:45.373Z,6.40
2018-01-19T13:35:13.003Z,6.30
2018-01-19T13:38:01.258Z,6.20
2018-01-19T13:40:28.833Z,6.10
2018-01-19T13:42:56.383Z,6.10
2018-01-19T13:45:23.948Z,6.10
2018-01-19T13:47:54.579Z,6.00
2018-01-19T13:50:22.949Z,5.90
2018-01-19T13:52:50.501Z,5.90
2018-01-19T13:55:18.858Z,5.80
2018-01-19T13:57:46.548Z,5.70
2018-01-19T14:00:14.130Z,5.70
2018-01-19T14:02:41.740Z,5.60
2018-01-19T14:05:09.333Z,5.60
2018-01-19T14:10:32.370Z,5.60
2018-01-19T14:13:00.753Z,5.60
2018-01-19T14:15:28.333Z,5.60
2018-01-19T14:18:16.674Z,5.60
2018-01-19T14:20:44.539Z,5.60
2018-01-19T14:23:12.123Z,5.60
2018-01-19T14:25:39.770Z,5.60
2018-01-19T14:28:07.409Z,5.60
2018-01-19T14:30:35.785Z,5.40
2018-01-19T14:33:03.416Z,5.40
2018-01-19T14:35:30.999Z,5.40
2018-01-19T14:38:00.634Z,5.40
2018-01-19T14:40:28.246Z,5.30
2018-01-19T14:42:55.831Z,5.20
2018-01-19T14:45:23.406Z,5.20
2018-01-19T14:47:51.020Z,5.10
2018-01-19T14:50:18.616Z,5.00
2018-01-19T14:52:46.256Z,4.90
2018-01-19T14:55:14.058Z,4.70
2018-01-19T14:57:41.640Z,4.50
2018-01-19T15:00:09.979Z,4.20
2018-01-19T15:02:37.652Z,4.20
2018-01-19T15:05:05.215Z,4.10
2018-01-19T15:07:32.757Z,4.10
2018-01-19T15:10:00.355Z,4.00
2018-01-19T15:12:27.958Z,4.00
2018-01-19T15:14:57.067Z,4.10
2018-01-19T15:17:24.641Z,4.20
2018-01-19T15:19:52.925Z,4.20
2018-01-19T15:22:20.480Z,4.30
2018-01-19T15:24:48.064Z,4.30
2018-01-19T15:27:15.656Z,4.30
2018-01-19T15:29:45.509Z,4.20
2018-01-19T15:32:13.151Z,4.30
2018-01-19T15:34:40.724Z,4.30
2018-01-19T15:37:12.583Z,4.20
2018-01-19T15:40:06.816Z,4.20
2018-01-19T18:35:12.817Z,3.90
2018-01-19T18:37:54.818Z,4.00
2018-01-19T18:40:28.277Z,4.00
2018-01-19T18:48:26.361Z,4.20
2018-01-19T18:58:48.694Z,4.10
2018-01-19T19:01:22.837Z,4.00
2018-01-19T19:03:54.160Z,4.00
2018-01-19T19:06:26.364Z,3.90
2018-01-19T19:14:09.355Z,3.70
2018-01-19T19:16:39.727Z,3.70
2018-01-19T19:19:11.749Z,3.60
2018-01-19T19:21:45.362Z,3.50
2018-01-19T19:24:17.301Z,3.50
2018-01-19T19:32:19.225Z,3.50
2018-01-19T19:37:26.840Z,3.60
2018-01-19T19:39:57.804Z,3.70
2018-01-19T19:42:30.898Z,3.80
2018-01-19T19:45:00.766Z,3.80
2018-01-19T19:47:29.738Z,3.80
2018-01-19T19:49:59.932Z,3.90
2018-01-19T19:52:32.214Z,3.90
2018-01-19T19:55:09.781Z,4.00
2018-01-19T19:57:38.895Z,4.00
2018-01-19T20:00:07.668Z,4.00
2018-01-19T20:02:36.634Z,4.10
2018-01-19T20:05:05.786Z,4.00
2018-01-19T20:07:46.694Z,4.00
2018-01-19T20:10:16.777Z,3.90
2018-01-19T20:12:46.815Z,3.80
2018-01-19T20:15:15.828Z,3.80
2018-01-19T20:17:44.359Z,3.70
2018-01-19T20:20:12.736Z,3.70
2018-01-19T20:22:41.341Z,3.60
2018-01-19T20:25:09.661Z,3.60
2018-01-19T20:27:37.859Z,3.50
2018-01-19T20:30:06.206Z,3.50
2018-01-19T20:32:34.346Z,3.40
2018-01-19T20:35:04.439Z,3.30
2018-01-19T20:37:37.232Z,3.20
2018-01-19T20:40:05.898Z,3.20
2018-01-19T20:42:34.260Z,3.30
2018-01-19T20:45:04.524Z,3.30
2018-01-19T20:47:37.846Z,3.30
2018-01-19T20:50:06.273Z,3.30
2018-01-19T20:52:34.951Z,3.30
2018-01-19T20:55:04.335Z,3.40
2018-01-19T20:57:32.894Z,3.30
2018-01-19T21:00:01.497Z,3.40
2018-01-19T21:02:31.225Z,3.40
2018-01-19T21:05:00.958Z,3.40
2018-01-19T21:07:46.580Z,3.40
2018-01-19T21:10:15.068Z,3.50
2018-01-19T21:15:18.116Z,3.30
2018-01-19T21:17:48.398Z,3.20
2018-01-19T21:23:01.462Z,3.10
2018-01-19T21:25:29.910Z,3.10
2018-01-19T21:27:59.022Z,3.00
2018-01-19T21:30:29.749Z,3.00
2018-01-19T21:32:59.182Z,2.90
2018-01-19T21:35:28.377Z,2.90
2018-01-19T21:38:01.990Z,2.90
2018-01-19T21:40:29.817Z,2.90
2018-01-19T21:42:57.513Z,2.80
2018-01-19T21:45:25.447Z,2.80
2018-01-19T21:47:58.210Z,2.80
2018-01-19T21:50:25.988Z,2.70
2018-01-19T21:52:53.753Z,2.70
2018-01-19T21:55:21.628Z,2.60
2018-01-19T21:57:49.356Z,2.60
2018-01-19T22:00:17.086Z,2.60
2018-01-19T22:02:45.020Z,2.60
2018-01-19T22:05:12.846Z,2.60
2018-01-19T22:07:40.594Z,2.60
2018-01-19T22:10:08.198Z,2.70
2018-01-19T22:12:36.697Z,2.60
2018-01-19T22:15:06.079Z,2.60
2018-01-19T22:17:33.854Z,2.60
2018-01-19T22:20:02.407Z,2.60
2018-01-19T22:22:32.909Z,2.60
2018-01-19T22:25:00.807Z,2.60
2018-01-19T22:27:29.320Z,2.70
2018-01-19T22:29:57.765Z,2.70
2018-01-19T22:32:26.933Z,2.70
2018-01-19T22:34:54.715Z,2.70
2018-01-19T22:37:22.440Z,2.70
2018-01-19T22:39:50.227Z,2.70
2018-01-19T22:42:17.934Z,2.70
2018-01-19T22:44:45.788Z,2.70
2018-01-19T22:47:13.518Z,2.70
2018-01-19T22:49:41.216Z,2.70
2018-01-19T22:52:08.872Z,2.70
2018-01-19T22:54:37.446Z,2.70
2018-01-19T22:57:05.190Z,2.70
2018-01-19T22:59:33.983Z,2.70
2018-01-19T23:02:03.447Z,2.80
2018-01-19T23:04:33.194Z,2.70
2018-01-19T23:07:00.945Z,2.70
2018-01-19T23:09:28.769Z,2.70
2018-01-19T23:11:56.581Z,2.70
2018-01-19T23:14:24.448Z,2.70
2018-01-19T23:16:52.181Z,2.70
2018-01-19T23:19:20.704Z,2.70
2018-01-19T23:21:49.095Z,2.70
2018-01-19T23:24:29.865Z,2.70
2018-01-19T23:26:57.588Z,2.60
2018-01-19T23:29:26.306Z,2.60
2018-01-19T23:31:54.216Z,2.60
2018-01-19T23:34:26.892Z,2.60
2018-01-19T23:36:54.706Z,2.60
2018-01-19T23:39:26.078Z,2.60
2018-01-19T23:41:55.386Z,2.70
2018-01-19T23:44:23.065Z,2.70
2018-01-19T23:46:50.771Z,2.70
2018-01-19T23:49:20.645Z,2.70
2018-01-19T23:51:48.372Z,2.60
2018-01-19T23:54:18.868Z,2.60
2018-01-19T23:56:48.353Z,2.60
2018-01-19T23:59:17.169Z,2.60
